Time;durP1;ratioP1;P1;durP2;ratioP2;P2;SDS_P1;SDS_P2;PMS_P1;PMS_P2;Temp;Humidity;BMP_temperature;BMP_pressure;BME280_temperature;BME280_humidity;BME280_pressure;Samples;Min_cycle;Max_cycle;Signal;HPM_P1;HPM_P2
2023/11/22 00:00:52;;;;;;;31.53;23.00;;;;;;;3.84;nan;100772.72;5056619;27;96880;-85
2023/11/22 00:03:18;;;;;;;30.93;23.80;;;;;;;3.72;nan;100754.50;5014271;27;98236;-86
2023/11/22 00:05:44;;;;;;;34.33;24.50;;;;;;;3.82;nan;100756.25;5020305;27;101717;-86
2023/11/22 00:08:09;;;;;;;33.60;23.33;;;;;;;3.77;nan;100773.56;5022581;27;96801;-86
2023/11/22 00:10:35;;;;;;;33.53;23.73;;;;;;;3.71;nan;100764.03;5017435;27;96949;-86
2023/11/22 00:13:00;;;;;;;33.43;23.37;;;;;;;3.66;nan;100776.13;5003270;27;101735;-86
2023/11/22 00:15:26;;;;;;;32.87;22.93;;;;;;;3.53;nan;100779.59;5010396;27;101550;-86
2023/11/22 00:17:53;;;;;;;36.03;25.37;;;;;;;3.17;nan;100783.78;5002312;27;96782;-87
2023/11/22 00:20:18;;;;;;;32.53;23.93;;;;;;;3.05;nan;100784.59;5022145;27;96874;-87
2023/11/22 00:22:45;;;;;;;33.40;23.10;;;;;;;2.93;nan;100769.84;5010845;27;101206;-86
2023/11/22 00:25:13;;;;;;;37.47;24.67;;;;;;;2.76;nan;100774.09;5047888;27;97271;-87
2023/11/22 00:27:38;;;;;;;34.33;24.37;;;;;;;3.13;nan;100800.22;5008297;27;97954;-87
2023/11/22 00:30:05;;;;;;;34.33;24.63;;;;;;;3.06;nan;100791.53;4995745;27;97441;-87
2023/11/22 00:32:30;;;;;;;37.27;24.43;;;;;;;3.32;nan;100808.94;5034265;27;98507;-85
2023/11/22 00:34:57;;;;;;;33.50;24.00;;;;;;;3.39;nan;100788.19;5006117;27;100992;-84
2023/11/22 00:37:23;;;;;;;40.13;24.07;;;;;;;3.72;nan;100812.47;5003952;27;96754;-84
2023/11/22 00:39:48;;;;;;;33.47;23.97;;;;;;;3.73;nan;100827.22;5030856;27;97071;-85
2023/11/22 00:42:14;;;;;;;34.47;23.70;;;;;;;3.55;nan;100834.94;5037878;27;97489;-85
2023/11/22 00:44:39;;;;;;;32.20;23.20;;;;;;;3.32;nan;100833.16;4995794;28;101419;-87
2023/11/22 00:47:06;;;;;;;33.90;22.87;;;;;;;3.28;nan;100840.91;5017226;27;96748;-87
2023/11/22 00:49:32;;;;;;;33.53;23.23;;;;;;;3.33;nan;100837.47;5029053;27;96833;-87
2023/11/22 00:51:58;;;;;;;33.63;21.83;;;;;;;3.25;nan;100805.44;5016273;27;101524;-87
2023/11/22 00:54:26;;;;;;;34.57;21.17;;;;;;;3.48;nan;100807.25;5024582;27;98394;-87
2023/11/22 00:56:51;;;;;;;29.70;21.13;;;;;;;3.37;nan;100800.31;5007435;27;96751;-86
2023/11/22 00:59:17;;;;;;;32.70;22.00;;;;;;;3.67;nan;100814.22;5030278;27;96748;-87
2023/11/22 01:01:42;;;;;;;34.60;23.07;;;;;;;3.72;nan;100812.47;5029461;27;98127;-86
2023/11/22 01:04:08;;;;;;;34.60;22.60;;;;;;;3.76;nan;100834.16;5002711;28;101845;-87
2023/11/22 01:06:34;;;;;;;33.20;21.73;;;;;;;3.59;nan;100828.91;5000633;27;96837;-87
2023/11/22 01:09:00;;;;;;;35.53;24.20;;;;;;;3.25;nan;100826.19;5023104;27;96822;-86
2023/11/22 01:11:26;;;;;;;34.93;21.50;;;;;;;3.20;nan;100812.38;5022311;27;98106;-87
2023/11/22 01:13:51;;;;;;;34.37;23.70;;;;;;;3.43;nan;100808.97;5019674;27;100986;-87
2023/11/22 01:16:17;;;;;;;32.60;23.00;;;;;;;3.46;nan;100848.78;5017746;27;97840;-86
2023/11/22 01:18:43;;;;;;;30.63;21.20;;;;;;;3.63;nan;100841.03;5038927;27;96947;-86
2023/11/22 01:21:08;;;;;;;37.30;22.30;;;;;;;3.54;nan;100849.66;5017736;27;101987;-86
2023/11/22 01:23:34;;;;;;;30.80;21.13;;;;;;;3.65;nan;100841.06;5042245;27;97911;-87
2023/11/22 01:26:00;;;;;;;32.70;21.30;;;;;;;3.67;nan;100854.91;5019827;27;97250;-86
2023/11/22 01:28:29;;;;;;;31.40;21.53;;;;;;;3.63;nan;100841.03;5042623;27;96992;-87
2023/11/22 01:30:55;;;;;;;29.33;21.27;;;;;;;3.52;nan;100837.53;5021579;27;98073;-87
2023/11/22 01:33:24;;;;;;;30.43;20.57;;;;;;;3.55;nan;100856.59;5029016;27;97771;-87
2023/11/22 01:35:52;;;;;;;33.00;21.87;;;;;;;3.36;nan;100853.06;5035706;27;96758;-86
2023/11/22 01:38:17;;;;;;;31.27;21.13;;;;;;;3.39;nan;100852.22;5052452;27;96653;-87
2023/11/22 01:40:45;;;;;;;29.63;20.80;;;;;;;3.14;nan;100846.03;5024862;27;101700;-87
2023/11/22 01:43:21;;;;;;;30.20;20.20;;;;;;;3.13;nan;100859.88;5027027;27;98577;-87
2023/11/22 01:45:47;;;;;;;29.87;20.90;;;;;;;3.20;nan;100846.09;5037494;27;96818;-87
2023/11/22 01:48:12;;;;;;;30.03;19.73;;;;;;;3.14;nan;100849.53;5042414;27;96880;-87
2023/11/22 01:50:44;;;;;;;30.13;20.63;;;;;;;2.88;nan;100862.34;5000068;27;101168;-87
2023/11/22 01:53:11;;;;;;;28.13;19.75;;;;;;;2.65;nan;100861.34;5051857;27;97948;-86
2023/11/22 01:55:38;;;;;;;32.87;20.63;;;;;;;2.77;nan;100861.41;5053723;27;96746;-86
2023/11/22 01:58:03;;;;;;;32.80;20.93;;;;;;;2.89;nan;100856.28;5044020;27;96894;-87
2023/11/22 02:00:40;;;;;;;29.67;20.63;;;;;;;2.94;nan;100844.22;5019277;27;101178;-84
2023/11/22 02:03:05;;;;;;;29.80;18.97;;;;;;;3.25;nan;100859.94;5020069;27;100180;-85
2023/11/22 02:05:31;;;;;;;31.03;20.60;;;;;;;3.09;nan;100865.94;5019436;27;97052;-84
2023/11/22 02:07:57;;;;;;;33.23;19.53;;;;;;;3.19;nan;100883.25;5029001;27;97322;-84
2023/11/22 02:10:23;;;;;;;26.80;19.23;;;;;;;2.93;nan;100875.34;5027688;27;101160;-86
2023/11/22 02:12:49;;;;;;;29.87;19.87;;;;;;;3.01;nan;100894.41;5014894;27;97972;-86
2023/11/22 02:15:14;;;;;;;29.53;19.63;;;;;;;3.28;nan;100909.25;5012685;28;97156;-86
2023/11/22 02:17:40;;;;;;;30.07;18.97;;;;;;;3.22;nan;100897.97;5004825;27;97021;-86
2023/11/22 02:20:09;;;;;;;31.20;20.00;;;;;;;3.26;nan;100898.00;5018713;27;101423;-86
2023/11/22 02:22:45;;;;;;;28.20;19.30;;;;;;;3.36;nan;100893.72;5026880;27;101871;-87
2023/11/22 02:25:11;;;;;;;32.80;18.97;;;;;;;3.32;nan;100894.59;5027862;27;97105;-86
2023/11/22 02:27:37;;;;;;;26.60;18.37;;;;;;;3.22;nan;100904.03;5019678;27;96766;-86
2023/11/22 02:30:06;;;;;;;28.40;17.70;;;;;;;3.20;nan;100904.88;5030205;27;98484;-86
2023/11/22 02:32:33;;;;;;;29.43;18.13;;;;;;;3.13;nan;100916.97;5039648;27;98486;-86
2023/11/22 02:34:59;;;;;;;32.43;18.80;;;;;;;3.15;nan;100918.69;5030435;27;97430;-86
2023/11/22 02:37:26;;;;;;;25.30;17.80;;;;;;;3.18;nan;100931.69;5024307;27;97103;-86
2023/11/22 02:40:04;;;;;;;25.73;18.07;;;;;;;3.21;nan;100925.66;5029517;27;100134;-85
2023/11/22 02:42:29;;;;;;;25.40;16.83;;;;;;;3.11;nan;100898.81;5036682;27;98252;-86
2023/11/22 02:44:55;;;;;;;24.33;17.13;;;;;;;3.20;nan;100915.25;4999373;27;96810;-86
2023/11/22 02:47:20;;;;;;;23.03;15.20;;;;;;;3.31;nan;100911.84;5011636;27;97186;-86
2023/11/22 02:49:46;;;;;;;24.73;17.40;;;;;;;3.33;nan;100919.66;5025904;27;98068;-86
2023/11/22 02:52:14;;;;;;;24.60;17.13;;;;;;;3.58;nan;100947.47;5015622;27;97885;-86
2023/11/22 02:54:45;;;;;;;27.17;16.63;;;;;;;3.52;nan;100943.97;5030359;27;97554;-86
2023/11/22 02:57:11;;;;;;;26.02;18.00;;;;;;;3.45;nan;100945.66;5022958;27;97124;-86
2023/11/22 02:59:37;;;;;;;23.83;16.70;;;;;;;3.57;nan;100950.06;5017849;27;100933;-86
2023/11/22 03:02:03;;;;;;;30.43;17.63;;;;;;;3.48;nan;100937.03;5021394;27;101423;-85
2023/11/22 03:04:28;;;;;;;26.33;17.77;;;;;;;3.57;nan;100943.13;5031214;27;96775;-85
2023/11/22 03:06:54;;;;;;;25.83;17.77;;;;;;;3.54;nan;100940.53;5018581;27;97437;-85
2023/11/22 03:09:19;;;;;;;28.77;17.90;;;;;;;3.72;nan;100978.69;5018723;27;101155;-86
2023/11/22 03:11:45;;;;;;;29.07;17.03;;;;;;;3.43;nan;100972.47;5036252;27;101510;-86
2023/11/22 03:14:10;;;;;;;28.33;18.60;;;;;;;2.94;nan;100962.69;5019723;27;96902;-86
2023/11/22 03:16:39;;;;;;;28.17;19.60;;;;;;;2.94;nan;100988.59;5019862;27;96886;-86
2023/11/22 03:19:06;;;;;;;30.10;20.53;;;;;;;2.69;nan;100954.69;5009082;27;98137;-86
2023/11/22 03:21:32;;;;;;;31.63;20.00;;;;;;;2.77;nan;100998.84;5028103;27;98339;-86
2023/11/22 03:24:00;;;;;;;30.30;19.20;;;;;;;3.11;nan;100996.50;5021296;27;96894;-85
2023/11/22 03:26:25;;;;;;;27.73;18.53;;;;;;;2.88;nan;100970.38;5017054;28;97039;-85
2023/11/22 03:28:51;;;;;;;35.93;18.67;;;;;;;2.64;nan;101003.03;5006367;28;101789;-86
2023/11/22 03:31:16;;;;;;;32.60;19.40;;;;;;;2.75;nan;100994.50;5040419;27;97271;-86
2023/11/22 03:33:42;;;;;;;29.47;19.93;;;;;;;2.60;nan;101028.94;5051223;27;96857;-83
2023/11/22 03:36:08;;;;;;;28.77;18.67;;;;;;;2.78;nan;101028.22;5021795;27;96934;-84
2023/11/22 03:38:33;;;;;;;30.40;19.40;;;;;;;2.78;nan;101023.91;5061967;27;97486;-74
2023/11/22 03:40:59;;;;;;;27.40;19.33;;;;;;;2.78;nan;101029.09;5052849;27;97404;-74
2023/11/22 03:43:24;;;;;;;26.83;19.30;;;;;;;2.87;nan;101026.56;5020603;27;96740;-74
2023/11/22 03:45:52;;;;;;;28.90;19.33;;;;;;;3.06;nan;101032.78;5038121;27;96868;-74
2023/11/22 03:48:17;;;;;;;37.30;20.23;;;;;;;3.03;nan;101043.16;5037955;27;98091;-74
2023/11/22 03:50:43;;;;;;;28.20;19.20;;;;;;;3.28;nan;101043.31;5020878;27;101465;-74
2023/11/22 03:53:08;;;;;;;32.83;18.90;;;;;;;3.28;nan;101041.59;5054919;27;96527;-74
2023/11/22 03:55:34;;;;;;;29.83;20.83;;;;;;;2.82;nan;101049.03;5020828;27;96980;-74
2023/11/22 03:58:00;;;;;;;29.87;20.20;;;;;;;2.79;nan;101046.38;5037509;27;101290;-74
2023/11/22 04:00:25;;;;;;;29.50;18.90;;;;;;;2.82;nan;101055.91;5037677;27;101201;-74
2023/11/22 04:02:51;;;;;;;26.80;18.00;;;;;;;2.64;nan;101056.59;5037495;27;96564;-74
2023/11/22 04:05:16;;;;;;;27.07;18.10;;;;;;;2.82;nan;101056.81;5054666;27;96761;-74
2023/11/22 04:07:42;;;;;;;27.40;16.63;;;;;;;2.56;nan;101060.84;5054116;27;97490;-74
2023/11/22 04:10:08;;;;;;;24.37;17.13;;;;;;;2.52;nan;101053.88;5019849;27;101118;-74
2023/11/22 04:12:33;;;;;;;26.27;17.17;;;;;;;2.19;nan;101063.03;5054367;27;96597;-74
2023/11/22 04:14:59;;;;;;;24.23;17.60;;;;;;;2.25;nan;101071.75;5037791;27;96889;-75
2023/11/22 04:17:24;;;;;;;24.27;16.70;;;;;;;2.26;nan;101080.38;5020501;27;101253;-74
2023/11/22 04:19:50;;;;;;;23.47;16.10;;;;;;;2.12;nan;101077.59;5037169;27;101376;-74
2023/11/22 04:22:15;;;;;;;23.50;15.53;;;;;;;2.30;nan;101079.59;5037603;27;96636;-74
2023/11/22 04:24:42;;;;;;;27.87;16.30;;;;;;;2.07;nan;101071.53;5020956;27;96814;-74
2023/11/22 04:27:08;;;;;;;22.87;15.30;;;;;;;2.17;nan;101080.28;5037227;27;101630;-74
2023/11/22 04:29:33;;;;;;;21.80;14.23;;;;;;;2.18;nan;101072.53;5040015;27;101343;-74
2023/11/22 04:31:59;;;;;;;20.33;13.57;;;;;;;2.42;nan;101071.06;5043573;27;97189;-74
2023/11/22 04:34:24;;;;;;;21.90;14.43;;;;;;;2.39;nan;101071.91;5079369;27;96730;-74
2023/11/22 04:36:50;;;;;;;20.90;12.73;;;;;;;2.21;nan;101085.53;5043741;27;101445;-74
2023/11/22 04:39:15;;;;;;;18.27;12.77;;;;;;;2.00;nan;101078.31;5079132;27;98089;-74
2023/11/22 04:41:41;;;;;;;18.47;12.07;;;;;;;1.76;nan;101086.63;5044108;27;96523;-74
2023/11/22 04:44:06;;;;;;;22.03;12.40;;;;;;;1.89;nan;101097.16;5060768;27;96875;-74
2023/11/22 04:46:32;;;;;;;22.33;13.57;;;;;;;1.87;nan;101094.56;5043763;27;97548;-74
2023/11/22 04:48:58;;;;;;;16.67;11.53;;;;;;;1.97;nan;101104.19;5043904;27;100945;-74
2023/11/22 04:51:24;;;;;;;18.97;12.37;;;;;;;1.97;nan;101109.34;5043724;27;96698;-74
2023/11/22 04:53:51;;;;;;;16.30;11.03;;;;;;;1.76;nan;101107.34;5044019;27;96929;-74
2023/11/22 04:56:17;;;;;;;16.07;10.63;;;;;;;1.82;nan;101109.16;5043144;27;101654;-74
2023/11/22 04:58:42;;;;;;;18.93;11.73;;;;;;;1.98;nan;101116.31;5043556;27;97352;-74
2023/11/22 05:01:10;;;;;;;17.13;11.00;;;;;;;2.05;nan;101106.88;5079276;27;96583;-74
2023/11/22 05:03:37;;;;;;;16.83;11.43;;;;;;;2.08;nan;101111.25;5043494;27;96790;-74
2023/11/22 05:06:03;;;;;;;17.03;10.33;;;;;;;1.93;nan;101115.34;5043861;27;97876;-74
2023/11/22 05:08:30;;;;;;;18.57;11.47;;;;;;;2.18;nan;101123.44;5042885;27;101499;-74
2023/11/22 05:10:55;;;;;;;20.30;12.57;;;;;;;2.17;nan;101132.06;5043845;27;96599;-74
2023/11/22 05:13:21;;;;;;;16.27;10.73;;;;;;;2.11;nan;101142.34;5061280;27;96826;-74
2023/11/22 05:15:46;;;;;;;19.07;11.27;;;;;;;2.20;nan;101152.84;5043095;27;101259;-74
2023/11/22 05:18:12;;;;;;;19.17;11.90;;;;;;;1.87;nan;101153.25;5060529;27;97341;-74
2023/11/22 05:20:39;;;;;;;18.53;11.50;;;;;;;2.04;nan;101146.59;5043219;27;96563;-74
2023/11/22 05:23:04;;;;;;;16.63;10.20;;;;;;;2.09;nan;101163.03;5043670;27;96756;-73
2023/11/22 05:25:30;;;;;;;17.43;10.97;;;;;;;2.08;nan;101163.91;5043292;27;97655;-74
2023/11/22 05:27:56;;;;;;;19.30;12.10;;;;;;;2.25;nan;101159.81;5060430;27;97314;-75
2023/11/22 05:30:21;;;;;;;19.10;12.33;;;;;;;2.34;nan;101182.41;5043233;27;96905;-74
2023/11/22 05:32:49;;;;;;;21.27;12.27;;;;;;;2.32;nan;101172.84;5043216;27;96869;-74
2023/11/22 05:35:14;;;;;;;18.37;11.27;;;;;;;2.26;nan;101178.81;5059765;27;98047;-75
2023/11/22 05:37:40;;;;;;;20.53;11.83;;;;;;;2.08;nan;101200.16;5060621;27;97985;-74
2023/11/22 05:40:09;;;;;;;18.93;10.93;;;;;;;2.09;nan;101206.22;5059391;27;96739;-75
2023/11/22 05:42:35;;;;;;;18.97;11.50;;;;;;;2.19;nan;101221.06;5039477;27;96762;-74
2023/11/22 05:45:01;;;;;;;20.80;12.03;;;;;;;2.10;nan;101203.66;5039640;27;97748;-75
2023/11/22 05:47:27;;;;;;;19.03;12.67;;;;;;;2.35;nan;101212.63;5022762;27;100953;-74
2023/11/22 05:49:52;;;;;;;19.93;11.40;;;;;;;2.62;nan;101221.66;5023046;27;96734;-75
2023/11/22 05:52:18;;;;;;;19.20;11.43;;;;;;;2.61;nan;101215.56;5056681;27;96894;-75
2023/11/22 05:54:43;;;;;;;21.03;13.13;;;;;;;2.27;nan;101222.03;5039478;27;99541;-75
2023/11/22 05:57:09;;;;;;;17.33;11.97;;;;;;;2.20;nan;101227.97;5039534;27;97973;-75
2023/11/22 05:59:36;;;;;;;17.83;11.30;;;;;;;2.31;nan;101230.72;5039752;27;96777;-75
2023/11/22 06:02:02;;;;;;;21.97;13.03;;;;;;;2.58;nan;101248.38;5040084;27;96976;-72
2023/11/22 06:04:27;;;;;;;22.90;12.53;;;;;;;2.42;nan;101244.72;5056040;27;97368;-73
2023/11/22 06:06:52;;;;;;;23.90;13.00;;;;;;;2.79;nan;101259.00;5074546;27;98554;-74
2023/11/22 06:09:18;;;;;;;18.23;12.17;;;;;;;2.83;nan;101255.63;5055187;27;98760;-76
2023/11/22 06:11:44;;;;;;;23.50;13.03;;;;;;;2.88;nan;101261.75;5038897;27;96944;-78
2023/11/22 06:14:09;;;;;;;23.67;15.13;;;;;;;2.88;nan;101258.25;5056315;27;97466;-76
2023/11/22 06:16:35;;;;;;;22.20;13.70;;;;;;;3.03;nan;101275.75;5038995;27;100471;-76
2023/11/22 06:19:00;;;;;;;22.57;13.10;;;;;;;3.02;nan;101271.41;5038960;27;96613;-76
2023/11/22 06:21:26;;;;;;;18.37;12.37;;;;;;;2.96;nan;101261.81;5039248;27;96793;-77
2023/11/22 06:23:55;;;;;;;22.30;12.90;;;;;;;3.01;nan;101256.69;5038922;27;100858;-77
2023/11/22 06:26:20;;;;;;;21.10;12.33;;;;;;;3.14;nan;101263.75;5022666;27;100995;-78
2023/11/22 06:28:49;;;;;;;19.80;12.20;;;;;;;3.13;nan;101265.47;5039048;27;96759;-77
2023/11/22 06:31:14;;;;;;;19.77;11.53;;;;;;;3.16;nan;101262.06;5056045;27;97056;-78
2023/11/22 06:33:40;;;;;;;18.40;10.97;;;;;;;3.17;nan;101266.38;5038519;27;97987;-77
2023/11/22 06:36:05;;;;;;;22.33;12.57;;;;;;;3.21;nan;101268.16;5055397;27;101026;-76
2023/11/22 06:38:31;;;;;;;19.57;11.37;;;;;;;2.76;nan;101281.44;5038754;27;96546;-77
2023/11/22 06:40:56;;;;;;;27.00;11.83;;;;;;;2.74;nan;101285.75;5038692;27;96936;-77
2023/11/22 06:43:22;;;;;;;16.40;10.00;;;;;;;2.76;nan;101287.50;5055459;27;100648;-76
2023/11/22 06:45:48;;;;;;;22.40;12.10;;;;;;;2.84;nan;101285.88;5038736;27;100582;-76
2023/11/22 06:48:13;;;;;;;18.13;10.30;;;;;;;2.45;nan;101288.81;5056019;27;96637;-77
2023/11/22 06:50:39;;;;;;;18.50;9.97;;;;;;;2.22;nan;101273.78;5039081;27;96903;-74
2023/11/22 06:53:05;;;;;;;17.40;9.40;;;;;;;2.25;nan;101294.56;5055269;27;97466;-72
2023/11/22 06:55:33;;;;;;;15.70;8.87;;;;;;;2.25;nan;101289.38;5038456;27;101293;-73
2023/11/22 06:57:59;;;;;;;22.67;9.53;;;;;;;2.32;nan;101307.59;5073416;27;96481;-72
2023/11/22 07:00:26;;;;;;;16.43;9.33;;;;;;;2.24;nan;101303.19;5055566;27;98361;-72
2023/11/22 07:02:52;;;;;;;16.97;9.33;;;;;;;2.39;nan;101314.63;5038656;27;98031;-72
2023/11/22 07:05:18;;;;;;;16.93;9.83;;;;;;;2.46;nan;101324.22;5038110;27;100896;-73
2023/11/22 07:07:44;;;;;;;16.23;9.27;;;;;;;2.53;nan;101322.59;5055280;27;96880;-72
2023/11/22 07:10:11;;;;;;;15.77;8.90;;;;;;;2.62;nan;101325.34;5055277;27;96937;-72
2023/11/22 07:12:37;;;;;;;16.73;10.10;;;;;;;2.71;nan;101307.31;5055594;27;97578;-72
2023/11/22 07:15:05;;;;;;;19.47;9.50;;;;;;;2.49;nan;101324.28;5055632;27;98271;-72
2023/11/22 07:17:33;;;;;;;16.60;10.00;;;;;;;2.55;nan;101311.41;5073688;27;96451;-72
2023/11/22 07:19:58;;;;;;;17.67;9.67;;;;;;;2.76;nan;101305.66;5038519;27;96746;-72
2023/11/22 07:22:24;;;;;;;18.03;10.13;;;;;;;3.02;nan;101321.53;5054954;27;97423;-72
2023/11/22 07:24:54;;;;;;;15.30;9.60;;;;;;;2.94;nan;101318.00;5021139;27;101576;-79
2023/11/22 07:27:19;;;;;;;15.50;8.93;;;;;;;2.93;nan;101332.69;5021757;27;96666;-81
2023/11/22 07:29:45;;;;;;;18.03;10.67;;;;;;;2.70;nan;101327.16;5038430;27;96745;-75
2023/11/22 07:32:11;;;;;;;17.50;10.57;;;;;;;2.41;nan;101316.38;5037768;27;99324;-76
2023/11/22 07:34:39;;;;;;;18.97;9.90;;;;;;;2.66;nan;101321.94;5037527;27;101372;-76
2023/11/22 07:37:07;;;;;;;17.37;10.67;;;;;;;2.61;nan;101308.91;5055074;27;96783;-74
2023/11/22 07:39:33;;;;;;;17.33;10.23;;;;;;;2.26;nan;101317.00;5073511;27;96695;-74
2023/11/22 07:41:58;;;;;;;16.73;10.17;;;;;;;2.03;nan;101321.81;5037718;27;97340;-74
2023/11/22 07:44:25;;;;;;;17.50;9.40;;;;;;;2.17;nan;101319.47;5037909;27;97892;-73
2023/11/22 07:46:53;;;;;;;17.23;8.83;;;;;;;1.90;nan;101321.59;5054143;27;96655;-71
2023/11/22 07:49:19;;;;;;;14.83;9.23;;;;;;;1.71;nan;101321.25;5054963;27;96827;-73
2023/11/22 07:51:45;;;;;;;16.77;8.70;;;;;;;1.92;nan;101343.19;5020550;27;99598;-73
2023/11/22 07:54:15;;;;;;;15.37;8.77;;;;;;;1.99;nan;101332.97;5054546;27;97175;-70
2023/11/22 07:56:43;;;;;;;15.30;8.80;;;;;;;2.14;nan;101354.81;5054645;27;96575;-71
2023/11/22 07:59:13;;;;;;;17.40;9.43;;;;;;;2.22;nan;101353.22;5037918;27;96771;-71
2023/11/22 08:01:39;;;;;;;13.73;8.90;;;;;;;2.30;nan;101355.94;5037249;27;101001;-71
2023/11/22 08:04:05;;;;;;;19.87;8.87;;;;;;;2.33;nan;101350.78;5053848;27;97883;-73
2023/11/22 08:06:31;;;;;;;15.23;8.90;;;;;;;2.28;nan;101373.19;5038026;27;96577;-72
2023/11/22 08:09:01;;;;;;;15.03;8.50;;;;;;;2.22;nan;101387.78;5072441;27;96701;-71
2023/11/22 08:11:27;;;;;;;18.30;7.77;;;;;;;2.57;nan;101395.25;5037289;27;98356;-72
2023/11/22 08:13:55;;;;;;;16.27;8.30;;;;;;;2.61;nan;101389.25;5072686;27;97553;-71
2023/11/22 08:16:20;;;;;;;15.50;8.10;;;;;;;2.43;nan;101392.44;5037400;27;96566;-72
2023/11/22 08:18:46;;;;;;;15.00;7.83;;;;;;;2.45;nan;101390.75;5054229;27;96839;-71
2023/11/22 08:21:11;;;;;;;14.30;8.13;;;;;;;2.59;nan;101401.34;5054250;27;97379;-72
2023/11/22 08:23:37;;;;;;;15.53;8.57;;;;;;;2.86;nan;101397.44;5020361;27;101553;-71
2023/11/22 08:26:04;;;;;;;16.70;8.87;;;;;;;2.90;nan;101405.25;5072658;27;96605;-71
2023/11/22 08:28:31;;;;;;;18.23;9.27;;;;;;;2.98;nan;101410.56;5054999;27;96946;-71
2023/11/22 08:30:56;;;;;;;19.93;10.17;;;;;;;3.03;nan;101402.88;5054044;27;98006;-72
2023/11/22 08:33:22;;;;;;;17.57;11.97;;;;;;;2.95;nan;101401.00;5036830;27;101198;-75
2023/11/22 08:35:50;;;;;;;18.97;11.57;;;;;;;3.12;nan;101403.84;5053370;27;97645;-72
2023/11/22 08:38:17;;;;;;;21.73;12.97;;;;;;;3.07;nan;101400.31;5036991;27;97518;-71
2023/11/22 08:40:42;;;;;;;19.67;12.93;;;;;;;2.75;nan;101389.47;5053642;27;101697;-72
2023/11/22 08:43:08;;;;;;;18.90;13.10;;;;;;;2.80;nan;101392.16;5036555;27;97886;-73
2023/11/22 08:45:34;;;;;;;21.93;13.90;;;;;;;2.78;nan;101386.06;5036908;27;97227;-71
2023/11/22 08:48:00;;;;;;;22.37;14.30;;;;;;;3.09;nan;101380.47;5036847;27;96804;-71
2023/11/22 08:50:25;;;;;;;22.67;14.17;;;;;;;3.24;nan;101378.94;5036658;27;97437;-72
2023/11/22 08:52:53;;;;;;;20.83;13.57;;;;;;;3.07;nan;101368.31;5036953;27;97666;-72
2023/11/22 08:55:24;;;;;;;21.50;13.53;;;;;;;3.21;nan;101373.69;5037155;27;96571;-73
2023/11/22 08:57:52;;;;;;;18.57;13.00;;;;;;;3.91;nan;101379.69;5054481;27;96581;-72
2023/11/22 09:00:22;;;;;;;22.00;14.73;;;;;;;4.99;nan;101366.66;5036432;27;97991;-72
2023/11/22 09:02:51;;;;;;;21.80;13.07;;;;;;;5.80;nan;101376.53;5053234;27;97361;-72
2023/11/22 09:05:16;;;;;;;25.83;13.70;;;;;;;6.54;nan;101387.03;5036207;27;96840;-71
2023/11/22 09:07:46;;;;;;;20.88;13.15;;;;;;;7.14;nan;101385.22;5053959;27;96766;-71
2023/11/22 09:10:15;;;;;;;25.20;14.88;;;;;;;7.57;nan;101387.66;5036190;27;101588;-77
2023/11/22 09:12:41;;;;;;;18.63;12.75;;;;;;;7.99;nan;101362.16;5037211;27;97507;-78
2023/11/22 09:15:16;;;;;;;20.50;13.45;;;;;;;7.69;nan;101356.25;5054123;27;96552;-77
2023/11/22 09:17:48;;;;;;;19.73;12.32;;;;;;;7.40;nan;101360.75;5058147;27;96542;-78
2023/11/22 09:20:14;;;;;;;19.73;11.93;;;;;;;7.11;nan;101364.34;5057785;27;97940;-77
2023/11/22 09:22:47;;;;;;;18.13;11.55;;;;;;;7.67;nan;101364.97;5057000;27;97926;-77
2023/11/22 09:25:24;;;;;;;18.55;11.52;;;;;;;8.13;nan;101365.53;5039232;27;97369;-77
2023/11/22 09:28:00;;;;;;;17.10;12.63;;;;;;;8.25;nan;101366.31;5039749;27;96859;-77
2023/11/22 09:30:38;;;;;;;22.60;12.82;;;;;;;8.04;nan;101368.22;5032531;27;98649;-77
2023/11/22 09:33:05;;;;;;;20.90;13.15;;;;;;;7.80;nan;101371.00;5040719;27;101429;-77
2023/11/22 09:35:31;;;;;;;15.52;10.57;;;;;;;7.66;nan;101363.22;5056666;27;96576;-77
2023/11/22 09:37:58;;;;;;;16.95;10.88;;;;;;;7.56;nan;101359.78;5039651;27;96781;-77
2023/11/22 09:40:24;;;;;;;13.55;9.93;;;;;;;7.45;nan;101357.25;5056325;27;101573;-77
2023/11/22 09:42:52;;;;;;;15.70;10.48;;;;;;;6.25;nan;101359.22;5057110;27;97990;-77
2023/11/22 09:45:19;;;;;;;18.83;12.07;;;;;;;5.78;nan;101352.19;5039586;27;96545;-78
2023/11/22 09:47:45;;;;;;;16.75;10.93;;;;;;;6.14;nan;101363.59;5039441;27;97230;-79
2023/11/22 09:50:20;;;;;;;14.13;10.10;;;;;;;6.01;nan;101361.84;5039017;27;97653;-77
2023/11/22 09:52:50;;;;;;;13.80;9.70;;;;;;;5.88;nan;101376.56;5022486;27;101351;-77
2023/11/22 09:55:17;;;;;;;11.38;8.93;;;;;;;6.07;nan;101362.69;5022776;27;97439;-77
2023/11/22 09:57:43;;;;;;;14.18;10.05;;;;;;;6.08;nan;101382.72;5039430;27;96928;-77
2023/11/22 10:00:13;;;;;;;19.08;10.85;;;;;;;6.17;nan;101370.53;5039354;27;100983;-78
2023/11/22 10:02:40;;;;;;;15.05;10.63;;;;;;;6.07;nan;101370.53;5024132;27;97661;-77
2023/11/22 10:05:08;;;;;;;16.35;10.75;;;;;;;5.80;nan;101373.91;5056504;27;96600;-75
2023/11/22 10:07:36;;;;;;;16.83;11.10;;;;;;;5.65;nan;101374.75;5039781;27;96812;-76
2023/11/22 10:10:05;;;;;;;17.73;10.70;;;;;;;5.45;nan;101381.63;5073908;27;97432;-78
2023/11/22 10:12:31;;;;;;;12.27;9.07;;;;;;;4.99;nan;101384.00;5022714;27;100340;-78
2023/11/22 10:15:11;;;;;;;14.73;10.53;;;;;;;4.89;nan;101390.91;5038811;27;96549;-77
2023/11/22 10:17:37;;;;;;;14.10;9.30;;;;;;;4.83;nan;101376.97;5022209;27;97308;-77
2023/11/22 10:20:02;;;;;;;15.03;9.80;;;;;;;4.69;nan;101379.50;5038676;27;99013;-77
2023/11/22 10:22:28;;;;;;;18.30;10.73;;;;;;;4.63;nan;101382.91;5074295;27;97535;-80
2023/11/22 10:25:00;;;;;;;20.43;11.33;;;;;;;4.53;nan;101378.50;5038894;27;96690;-78
2023/11/22 10:27:26;;;;;;;15.97;10.03;;;;;;;4.66;nan;101380.34;5038380;27;96656;-77
2023/11/22 10:29:52;;;;;;;15.93;9.40;;;;;;;4.70;nan;101384.69;5038646;27;101211;-77
2023/11/22 10:32:17;;;;;;;16.63;10.17;;;;;;;4.59;nan;101395.88;5038766;27;101426;-77
2023/11/22 10:34:43;;;;;;;15.83;9.90;;;;;;;4.58;nan;101395.00;5021992;27;96585;-77
2023/11/22 10:37:09;;;;;;;13.90;8.53;;;;;;;4.67;nan;101405.47;5038965;27;96763;-78
2023/11/22 10:39:35;;;;;;;11.50;8.37;;;;;;;4.78;nan;101405.56;5054951;27;98134;-77
2023/11/22 10:42:04;;;;;;;15.00;9.90;;;;;;;4.72;nan;101395.13;5055672;27;97679;-78
2023/11/22 10:44:32;;;;;;;11.53;8.63;;;;;;;4.76;nan;101408.13;5038867;27;97117;-77
2023/11/22 10:46:58;;;;;;;12.67;8.37;;;;;;;4.97;nan;101410.03;5038522;27;96812;-77
2023/11/22 10:49:23;;;;;;;19.57;13.73;;;;;;;5.05;nan;101430.03;5038534;27;98199;-79
2023/11/22 10:51:52;;;;;;;25.43;15.10;;;;;;;5.19;nan;101437.06;5055176;27;101373;-77
2023/11/22 10:54:20;;;;;;;27.83;16.93;;;;;;;5.27;nan;101444.06;5055421;27;96616;-79
2023/11/22 10:56:46;;;;;;;25.03;16.67;;;;;;;5.10;nan;101449.16;5038709;27;96879;-79
2023/11/22 10:59:16;;;;;;;25.00;16.10;;;;;;;4.99;nan;101452.53;5037864;27;101084;-77
2023/11/22 11:01:54;;;;;;;21.77;14.33;;;;;;;5.12;nan;101447.41;5038388;27;97924;-77
2023/11/22 11:04:43;;;;;;;24.70;14.40;;;;;;;5.31;nan;101458.81;5039449;27;97024;-77
2023/11/22 11:07:15;;;;;;;23.80;14.83;;;;;;;5.02;nan;101461.22;5055567;27;96731;-78
2023/11/22 11:09:41;;;;;;;21.57;14.63;;;;;;;5.04;nan;101447.38;5038430;27;97733;-77
2023/11/22 11:12:07;;;;;;;19.50;12.80;;;;;;;5.03;nan;101443.00;5055219;27;97452;-78
2023/11/22 11:14:33;;;;;;;24.03;13.50;;;;;;;5.01;nan;101442.16;5073726;27;96504;-77
2023/11/22 11:16:59;;;;;;;22.20;13.67;;;;;;;4.90;nan;101439.47;5038187;27;96808;-77
2023/11/22 11:19:25;;;;;;;19.43;13.20;;;;;;;4.89;nan;101432.53;5055252;27;97436;-81
2023/11/22 11:21:51;;;;;;;19.87;12.57;;;;;;;4.92;nan;101434.28;5037973;27;101513;-79
2023/11/22 11:24:18;;;;;;;20.57;12.90;;;;;;;4.96;nan;101410.00;5021198;27;96643;-77
2023/11/22 11:26:54;;;;;;;20.43;12.77;;;;;;;4.96;nan;101412.63;5055008;27;96903;-79
2023/11/22 11:29:30;;;;;;;18.90;10.97;;;;;;;4.91;nan;101414.31;5038654;27;97937;-78
2023/11/22 11:31:56;;;;;;;16.30;10.47;;;;;;;4.78;nan;101410.78;5037587;27;101761;-77